sensor_id;sensor_type;location;lat;lon;timestamp;pressure;altitude;pressure_sealevel;temperature;humidity
30302;BME280;17111;52.130;5.028;2023-12-20T00:01:55;101677.31;;;16.34;55.46
30302;BME280;17111;52.130;5.028;2023-12-20T00:04:22;101669.28;;;16.45;55.22
30302;BME280;17111;52.130;5.028;2023-12-20T00:06:49;101667.56;;;16.56;55.19
30302;BME280;17111;52.130;5.028;2023-12-20T00:09:16;101666.84;;;16.65;54.60
30302;BME280;17111;52.130;5.028;2023-12-20T00:11:43;101664.28;;;16.74;54.33
30302;BME280;17111;52.130;5.028;2023-12-20T00:14:09;101668.03;;;16.83;53.91
30302;BME280;17111;52.130;5.028;2023-12-20T00:16:36;101653.03;;;16.92;54.10
30302;BME280;17111;52.130;5.028;2023-12-20T00:19:03;101643.53;;;16.99;54.16
30302;BME280;17111;52.130;5.028;2023-12-20T00:21:29;101653.00;;;17.03;53.76
30302;BME280;17111;52.130;5.028;2023-12-20T00:23:56;101651.91;;;17.06;53.38
30302;BME280;17111;52.130;5.028;2023-12-20T00:26:23;101652.00;;;17.04;54.16
30302;BME280;17111;52.130;5.028;2023-12-20T00:28:49;101661.78;;;17.05;53.97
30302;BME280;17111;52.130;5.028;2023-12-20T00:31:16;101659.94;;;17.06;53.80
30302;BME280;17111;52.130;5.028;2023-12-20T00:33:42;101659.09;;;17.05;53.94
30302;BME280;17111;52.130;5.028;2023-12-20T00:36:10;101657.38;;;17.04;53.86
30302;BME280;17111;52.130;5.028;2023-12-20T00:38:37;101659.09;;;17.05;54.10
30302;BME280;17111;52.130;5.028;2023-12-20T00:41:03;101658.25;;;17.05;54.04
30302;BME280;17111;52.130;5.028;2023-12-20T00:43:30;101660.94;;;17.05;53.82
30302;BME280;17111;52.130;5.028;2023-12-20T00:45:57;101660.03;;;17.04;53.74
30302;BME280;17111;52.130;5.028;2023-12-20T00:48:26;101660.03;;;17.04;53.15
30302;BME280;17111;52.130;5.028;2023-12-20T00:51:02;101661.88;;;17.03;53.51
30302;BME280;17111;52.130;5.028;2023-12-20T00:53:29;101649.63;;;17.01;53.21
30302;BME280;17111;52.130;5.028;2023-12-20T00:55:55;101651.56;;;16.99;53.25
30302;BME280;17111;52.130;5.028;2023-12-20T00:58:22;101644.50;;;16.98;53.57
30302;BME280;17111;52.130;5.028;2023-12-20T01:00:49;101637.69;;;16.94;53.13
30302;BME280;17111;52.130;5.028;2023-12-20T01:03:15;101645.28;;;16.89;53.68
30302;BME280;17111;52.130;5.028;2023-12-20T01:05:42;101647.44;;;16.84;54.17
30302;BME280;17111;52.130;5.028;2023-12-20T01:08:09;101659.41;;;16.80;53.55
30302;BME280;17111;52.130;5.028;2023-12-20T01:10:35;101652.72;;;16.74;53.61
30302;BME280;17111;52.130;5.028;2023-12-20T01:13:02;101653.06;;;16.69;53.95
30302;BME280;17111;52.130;5.028;2023-12-20T01:15:29;101646.28;;;16.65;54.97
30302;BME280;17111;52.130;5.028;2023-12-20T01:17:55;101645.28;;;16.66;53.74
30302;BME280;17111;52.130;5.028;2023-12-20T01:20:23;101649.28;;;16.72;53.92
30302;BME280;17111;52.130;5.028;2023-12-20T01:22:50;101653.09;;;16.81;53.97
30302;BME280;17111;52.130;5.028;2023-12-20T01:25:16;101660.47;;;16.88;54.04
30302;BME280;17111;52.130;5.028;2023-12-20T01:27:43;101652.78;;;16.95;53.59
30302;BME280;17111;52.130;5.028;2023-12-20T01:30:10;101661.03;;;17.03;53.66
30302;BME280;17111;52.130;5.028;2023-12-20T01:32:37;101665.75;;;17.11;53.67
30302;BME280;17111;52.130;5.028;2023-12-20T01:35:04;101653.66;;;17.16;53.45
30302;BME280;17111;52.130;5.028;2023-12-20T01:37:30;101652.31;;;17.22;53.21
30302;BME280;17111;52.130;5.028;2023-12-20T01:39:57;101653.78;;;17.26;52.88
30302;BME280;17111;52.130;5.028;2023-12-20T01:42:25;101651.09;;;17.26;53.48
30302;BME280;17111;52.130;5.028;2023-12-20T01:44:51;101642.19;;;17.25;52.86
30302;BME280;17111;52.130;5.028;2023-12-20T01:47:18;101649.50;;;17.23;53.30
30302;BME280;17111;52.130;5.028;2023-12-20T01:49:45;101641.59;;;17.22;53.42
30302;BME280;17111;52.130;5.028;2023-12-20T01:52:12;101645.28;;;17.21;52.92
30302;BME280;17111;52.130;5.028;2023-12-20T01:54:40;101644.41;;;17.20;53.11
30302;BME280;17111;52.130;5.028;2023-12-20T01:57:08;101646.38;;;17.18;53.30
30302;BME280;17111;52.130;5.028;2023-12-20T01:59:35;101647.22;;;17.19;52.94
30302;BME280;17111;52.130;5.028;2023-12-20T02:02:03;101648.31;;;17.16;53.02
30302;BME280;17111;52.130;5.028;2023-12-20T02:04:30;101643.94;;;17.15;52.92
30302;BME280;17111;52.130;5.028;2023-12-20T02:06:57;101643.94;;;17.15;53.26
30302;BME280;17111;52.130;5.028;2023-12-20T02:09:26;101639.56;;;17.14;53.39
30302;BME280;17111;52.130;5.028;2023-12-20T02:11:54;101635.19;;;17.13;52.91
30302;BME280;17111;52.130;5.028;2023-12-20T02:14:20;101641.50;;;17.12;53.28
30302;BME280;17111;52.130;5.028;2023-12-20T02:16:47;101646.88;;;17.12;53.45
30302;BME280;17111;52.130;5.028;2023-12-20T02:19:15;101651.38;;;17.12;53.79
30302;BME280;17111;52.130;5.028;2023-12-20T02:21:42;101638.97;;;17.11;53.55
30302;BME280;17111;52.130;5.028;2023-12-20T02:24:09;101642.63;;;17.10;53.66
30302;BME280;17111;52.130;5.028;2023-12-20T02:26:35;101642.75;;;17.08;53.13
30302;BME280;17111;52.130;5.028;2023-12-20T02:29:02;101638.63;;;17.04;53.78
30302;BME280;17111;52.130;5.028;2023-12-20T02:31:28;101631.56;;;17.03;53.34
30302;BME280;17111;52.130;5.028;2023-12-20T02:33:55;101630.47;;;17.06;53.54
30302;BME280;17111;52.130;5.028;2023-12-20T02:36:22;101631.78;;;17.11;53.39
30302;BME280;17111;52.130;5.028;2023-12-20T02:38:49;101625.19;;;17.15;53.49
30302;BME280;17111;52.130;5.028;2023-12-20T02:41:17;101627.38;;;17.21;53.20
30302;BME280;17111;52.130;5.028;2023-12-20T02:43:45;101625.00;;;17.28;53.35
30302;BME280;17111;52.130;5.028;2023-12-20T02:46:12;101622.66;;;17.35;53.38
30302;BME280;17111;52.130;5.028;2023-12-20T02:48:40;101625.78;;;17.40;53.12
30302;BME280;17111;52.130;5.028;2023-12-20T02:51:07;101616.66;;;17.42;52.82
30302;BME280;17111;52.130;5.028;2023-12-20T02:53:33;101622.59;;;17.46;52.79
30302;BME280;17111;52.130;5.028;2023-12-20T02:56:00;101617.25;;;17.46;52.80
30302;BME280;17111;52.130;5.028;2023-12-20T02:58:26;101608.47;;;17.44;53.23
30302;BME280;17111;52.130;5.028;2023-12-20T03:00:53;101616.66;;;17.42;52.81
30302;BME280;17111;52.130;5.028;2023-12-20T03:03:20;101616.91;;;17.39;53.04
30302;BME280;17111;52.130;5.028;2023-12-20T03:05:47;101609.00;;;17.38;52.88
30302;BME280;17111;52.130;5.028;2023-12-20T03:08:13;101608.28;;;17.36;52.95
30302;BME280;17111;52.130;5.028;2023-12-20T03:10:40;101612.19;;;17.32;52.96
30302;BME280;17111;52.130;5.028;2023-12-20T03:13:06;101604.16;;;17.32;52.70
30302;BME280;17111;52.130;5.028;2023-12-20T03:15:33;101597.25;;;17.29;52.97
30302;BME280;17111;52.130;5.028;2023-12-20T03:18:00;101601.03;;;17.26;53.12
30302;BME280;17111;52.130;5.028;2023-12-20T03:20:26;101597.63;;;17.24;53.20
30302;BME280;17111;52.130;5.028;2023-12-20T03:22:53;101601.28;;;17.23;52.81
30302;BME280;17111;52.130;5.028;2023-12-20T03:25:20;101604.94;;;17.22;53.03
30302;BME280;17111;52.130;5.028;2023-12-20T03:27:46;101599.72;;;17.21;53.05
30302;BME280;17111;52.130;5.028;2023-12-20T03:30:13;101599.84;;;17.19;53.31
30302;BME280;17111;52.130;5.028;2023-12-20T03:32:40;101600.81;;;17.18;53.64
30302;BME280;17111;52.130;5.028;2023-12-20T03:35:07;101612.53;;;17.17;53.01
30302;BME280;17111;52.130;5.028;2023-12-20T03:37:34;101608.13;;;17.16;53.08
30302;BME280;17111;52.130;5.028;2023-12-20T03:40:01;101596.72;;;17.14;53.26
30302;BME280;17111;52.130;5.028;2023-12-20T03:42:27;101600.38;;;17.13;53.12
30302;BME280;17111;52.130;5.028;2023-12-20T03:44:54;101607.69;;;17.11;53.29
30302;BME280;17111;52.130;5.028;2023-12-20T03:47:20;101606.13;;;17.09;53.77
30302;BME280;17111;52.130;5.028;2023-12-20T03:49:47;101611.47;;;17.09;53.75
30302;BME280;17111;52.130;5.028;2023-12-20T03:52:13;101613.16;;;17.10;53.68
30302;BME280;17111;52.130;5.028;2023-12-20T03:54:40;101605.72;;;17.13;53.42
30302;BME280;17111;52.130;5.028;2023-12-20T03:57:08;101609.97;;;17.16;53.45
30302;BME280;17111;52.130;5.028;2023-12-20T03:59:36;101604.34;;;17.19;53.71
30302;BME280;17111;52.130;5.028;2023-12-20T04:02:03;101602.97;;;17.24;53.24
30302;BME280;17111;52.130;5.028;2023-12-20T04:04:30;101603.31;;;17.31;53.18
30302;BME280;17111;52.130;5.028;2023-12-20T04:06:57;101605.59;;;17.36;52.88
30302;BME280;17111;52.130;5.028;2023-12-20T04:09:23;101602.41;;;17.42;52.95
30302;BME280;17111;52.130;5.028;2023-12-20T04:11:50;101593.22;;;17.44;52.57
30302;BME280;17111;52.130;5.028;2023-12-20T04:14:17;101591.16;;;17.48;52.56
30302;BME280;17111;52.130;5.028;2023-12-20T04:16:44;101591.88;;;17.50;52.53
30302;BME280;17111;52.130;5.028;2023-12-20T04:19:13;101578.59;;;17.48;52.41
30302;BME280;17111;52.130;5.028;2023-12-20T04:21:39;101591.28;;;17.46;52.67
30302;BME280;17111;52.130;5.028;2023-12-20T04:24:06;101594.22;;;17.43;52.64
30302;BME280;17111;52.130;5.028;2023-12-20T04:26:33;101590.00;;;17.41;52.80
30302;BME280;17111;52.130;5.028;2023-12-20T04:28:59;101582.22;;;17.38;52.42
30302;BME280;17111;52.130;5.028;2023-12-20T04:31:26;101575.16;;;17.37;52.66
30302;BME280;17111;52.130;5.028;2023-12-20T04:33:53;101579.78;;;17.35;52.62
30302;BME280;17111;52.130;5.028;2023-12-20T04:36:19;101585.28;;;17.33;52.74
30302;BME280;17111;52.130;5.028;2023-12-20T04:38:46;101587.22;;;17.31;53.18
30302;BME280;17111;52.130;5.028;2023-12-20T04:41:13;101580.28;;;17.28;52.78
30302;BME280;17111;52.130;5.028;2023-12-20T04:43:42;101580.59;;;17.25;53.08
30302;BME280;17111;52.130;5.028;2023-12-20T04:46:09;101577.06;;;17.25;53.06
30302;BME280;17111;52.130;5.028;2023-12-20T04:48:35;101578.16;;;17.22;53.19
30302;BME280;17111;52.130;5.028;2023-12-20T04:51:02;101578.28;;;17.21;53.15
30302;BME280;17111;52.130;5.028;2023-12-20T04:53:29;101575.72;;;17.19;53.45
30302;BME280;17111;52.130;5.028;2023-12-20T04:55:55;101584.75;;;17.18;52.80
30302;BME280;17111;52.130;5.028;2023-12-20T04:58:22;101575.03;;;17.17;52.77
30302;BME280;17111;52.130;5.028;2023-12-20T05:00:48;101576.88;;;17.17;52.96
30302;BME280;17111;52.130;5.028;2023-12-20T05:03:15;101571.63;;;17.15;53.01
30302;BME280;17111;52.130;5.028;2023-12-20T05:05:42;101574.28;;;17.15;52.95
30302;BME280;17111;52.130;5.028;2023-12-20T05:08:08;101561.75;;;17.16;53.46
30302;BME280;17111;52.130;5.028;2023-12-20T05:10:35;101559.22;;;17.14;53.37
30302;BME280;17111;52.130;5.028;2023-12-20T05:13:03;101562.03;;;17.13;53.33
30302;BME280;17111;52.130;5.028;2023-12-20T05:15:29;101571.16;;;17.10;53.06
30302;BME280;17111;52.130;5.028;2023-12-20T05:17:56;101568.63;;;17.09;53.58
30302;BME280;17111;52.130;5.028;2023-12-20T05:20:23;101571.88;;;17.12;53.14
30302;BME280;17111;52.130;5.028;2023-12-20T05:22:50;101583.16;;;17.16;53.14
30302;BME280;17111;52.130;5.028;2023-12-20T05:25:17;101570.38;;;17.19;53.41
30302;BME280;17111;52.130;5.028;2023-12-20T05:27:43;101570.81;;;17.24;52.64
30302;BME280;17111;52.130;5.028;2023-12-20T05:30:11;101575.81;;;17.29;53.25
30302;BME280;17111;52.130;5.028;2023-12-20T05:32:37;101567.22;;;17.35;52.96
30302;BME280;17111;52.130;5.028;2023-12-20T05:35:04;101566.84;;;17.40;52.33
30302;BME280;17111;52.130;5.028;2023-12-20T05:37:31;101569.25;;;17.43;52.78
30302;BME280;17111;52.130;5.028;2023-12-20T05:39:57;101576.19;;;17.45;52.46
30302;BME280;17111;52.130;5.028;2023-12-20T05:42:24;101577.16;;;17.44;52.70
30302;BME280;17111;52.130;5.028;2023-12-20T05:44:50;101566.44;;;17.44;52.63
30302;BME280;17111;52.130;5.028;2023-12-20T05:47:21;101567.56;;;17.42;52.38
30302;BME280;17111;52.130;5.028;2023-12-20T05:49:47;101566.97;;;17.38;52.74
30302;BME280;17111;52.130;5.028;2023-12-20T05:52:14;101556.41;;;17.37;52.42
30302;BME280;17111;52.130;5.028;2023-12-20T05:54:41;101559.19;;;17.35;52.73
30302;BME280;17111;52.130;5.028;2023-12-20T05:57:08;101562.03;;;17.34;52.44
30302;BME280;17111;52.130;5.028;2023-12-20T05:59:35;101561.28;;;17.32;52.39
30302;BME280;17111;52.130;5.028;2023-12-20T06:02:03;101565.09;;;17.29;52.42
30302;BME280;17111;52.130;5.028;2023-12-20T06:04:30;101559.00;;;17.27;52.73
30302;BME280;17111;52.130;5.028;2023-12-20T06:06:56;101565.22;;;17.27;52.55
30302;BME280;17111;52.130;5.028;2023-12-20T06:09:23;101569.03;;;17.25;52.62
30302;BME280;17111;52.130;5.028;2023-12-20T06:11:50;101560.25;;;17.23;53.07
30302;BME280;17111;52.130;5.028;2023-12-20T06:14:17;101566.59;;;17.22;52.33
30302;BME280;17111;52.130;5.028;2023-12-20T06:16:44;101571.09;;;17.21;52.44
30302;BME280;17111;52.130;5.028;2023-12-20T06:19:11;101563.19;;;17.20;52.70
30302;BME280;17111;52.130;5.028;2023-12-20T06:21:38;101561.50;;;17.19;53.26
30302;BME280;17111;52.130;5.028;2023-12-20T06:24:08;101558.81;;;17.19;52.37
30302;BME280;17111;52.130;5.028;2023-12-20T06:26:35;101564.31;;;17.17;53.20
30302;BME280;17111;52.130;5.028;2023-12-20T06:29:02;101567.94;;;17.16;52.81
30302;BME280;17111;52.130;5.028;2023-12-20T06:31:29;101555.44;;;17.17;52.74
30302;BME280;17111;52.130;5.028;2023-12-20T06:33:55;101560.91;;;17.15;53.21
30302;BME280;17111;52.130;5.028;2023-12-20T06:36:24;101561.88;;;17.14;52.72
30302;BME280;17111;52.130;5.028;2023-12-20T06:38:51;101554.69;;;17.15;52.79
30302;BME280;17111;52.130;5.028;2023-12-20T06:41:18;101562.59;;;17.16;52.97
30302;BME280;17111;52.130;5.028;2023-12-20T06:43:45;101561.50;;;17.19;52.98
30302;BME280;17111;52.130;5.028;2023-12-20T06:46:16;101555.75;;;17.23;52.79
30302;BME280;17111;52.130;5.028;2023-12-20T06:48:43;101557.66;;;17.33;52.88
30302;BME280;17111;52.130;5.028;2023-12-20T06:51:16;101558.78;;;17.40;52.65
30302;BME280;17111;52.130;5.028;2023-12-20T06:53:43;101563.66;;;17.46;52.64
30302;BME280;17111;52.130;5.028;2023-12-20T06:56:10;101566.91;;;17.49;52.42
30302;BME280;17111;52.130;5.028;2023-12-20T06:58:42;101561.41;;;17.51;52.22
30302;BME280;17111;52.130;5.028;2023-12-20T07:01:12;101554.09;;;17.53;52.40
30302;BME280;17111;52.130;5.028;2023-12-20T07:03:39;101556.78;;;17.53;52.37
30302;BME280;17111;52.130;5.028;2023-12-20T07:06:09;101552.66;;;17.49;51.98
30302;BME280;17111;52.130;5.028;2023-12-20T07:08:36;101552.94;;;17.46;52.55
30302;BME280;17111;52.130;5.028;2023-12-20T07:11:02;101547.81;;;17.43;52.35
30302;BME280;17111;52.130;5.028;2023-12-20T07:13:29;101549.81;;;17.41;52.37
30302;BME280;17111;52.130;5.028;2023-12-20T07:15:56;101549.91;;;17.39;52.24
30302;BME280;17111;52.130;5.028;2023-12-20T07:18:23;101535.09;;;17.35;52.19
30302;BME280;17111;52.130;5.028;2023-12-20T07:20:50;101539.59;;;17.35;52.13
30302;BME280;17111;52.130;5.028;2023-12-20T07:23:17;101534.50;;;17.32;52.40
30302;BME280;17111;52.130;5.028;2023-12-20T07:25:43;101536.31;;;17.31;52.31
30302;BME280;17111;52.130;5.028;2023-12-20T07:28:10;101540.09;;;17.28;52.37
30302;BME280;17111;52.130;5.028;2023-12-20T07:30:37;101531.38;;;17.26;52.84
30302;BME280;17111;52.130;5.028;2023-12-20T07:33:03;101529.69;;;17.25;52.65
30302;BME280;17111;52.130;5.028;2023-12-20T07:35:30;101533.31;;;17.24;52.41
30302;BME280;17111;52.130;5.028;2023-12-20T07:37:57;101533.47;;;17.23;52.49
30302;BME280;17111;52.130;5.028;2023-12-20T07:40:24;101529.09;;;17.22;52.60
30302;BME280;17111;52.130;5.028;2023-12-20T07:42:51;101546.84;;;17.23;52.63
30302;BME280;17111;52.130;5.028;2023-12-20T07:45:18;101538.97;;;17.21;52.69
30302;BME280;17111;52.130;5.028;2023-12-20T07:47:44;101531.88;;;17.20;52.10
30302;BME280;17111;52.130;5.028;2023-12-20T07:50:11;101549.78;;;17.20;52.66
30302;BME280;17111;52.130;5.028;2023-12-20T07:52:38;101551.75;;;17.18;52.60
30302;BME280;17111;52.130;5.028;2023-12-20T07:55:06;101552.59;;;17.18;52.70
30302;BME280;17111;52.130;5.028;2023-12-20T07:57:32;101547.25;;;17.18;52.59
30302;BME280;17111;52.130;5.028;2023-12-20T07:59:59;101559.81;;;17.18;52.37
30302;BME280;17111;52.130;5.028;2023-12-20T08:02:26;101569.66;;;17.17;53.03
30302;BME280;17111;52.130;5.028;2023-12-20T08:04:52;101565.41;;;17.15;52.19
30302;BME280;17111;52.130;5.028;2023-12-20T08:07:19;101562.88;;;17.13;52.22
30302;BME280;17111;52.130;5.028;2023-12-20T08:09:45;101571.88;;;17.12;51.96
30302;BME280;17111;52.130;5.028;2023-12-20T08:12:12;101559.47;;;17.11;52.94
30302;BME280;17111;52.130;5.028;2023-12-20T08:14:39;101558.03;;;17.07;52.79
30302;BME280;17111;52.130;5.028;2023-12-20T08:17:05;101559.25;;;17.03;52.98
30302;BME280;17111;52.130;5.028;2023-12-20T08:19:32;101555.16;;;16.99;52.47
30302;BME280;17111;52.130;5.028;2023-12-20T08:21:59;101564.41;;;16.95;53.01
30302;BME280;17111;52.130;5.028;2023-12-20T08:24:25;101559.44;;;16.90;53.11
30302;BME280;17111;52.130;5.028;2023-12-20T08:26:52;101558.84;;;16.87;53.29
30302;BME280;17111;52.130;5.028;2023-12-20T08:29:19;101554.72;;;16.83;53.43
30302;BME280;17111;52.130;5.028;2023-12-20T08:31:45;101547.94;;;16.78;53.63
30302;BME280;17111;52.130;5.028;2023-12-20T08:34:13;101557.19;;;16.74;53.54
30302;BME280;17111;52.130;5.028;2023-12-20T08:36:41;101549.31;;;16.73;53.24
30302;BME280;17111;52.130;5.028;2023-12-20T08:39:08;101552.06;;;16.71;53.65
30302;BME280;17111;52.130;5.028;2023-12-20T08:41:35;101546.84;;;16.70;53.65
30302;BME280;17111;52.130;5.028;2023-12-20T08:44:02;101554.88;;;16.70;53.87
30302;BME280;17111;52.130;5.028;2023-12-20T08:46:30;101556.72;;;16.69;53.56
30302;BME280;17111;52.130;5.028;2023-12-20T08:48:56;101557.69;;;16.68;53.99
30302;BME280;17111;52.130;5.028;2023-12-20T08:51:24;101554.13;;;16.68;53.47
30302;BME280;17111;52.130;5.028;2023-12-20T08:53:52;101559.63;;;16.66;53.28
30302;BME280;17111;52.130;5.028;2023-12-20T08:56:18;101562.44;;;16.65;53.90
30302;BME280;17111;52.130;5.028;2023-12-20T08:58:48;101560.88;;;16.62;53.52
30302;BME280;17111;52.130;5.028;2023-12-20T09:01:15;101561.97;;;16.60;53.25
30302;BME280;17111;52.130;5.028;2023-12-20T09:03:42;101563.09;;;16.57;54.29
30302;BME280;17111;52.130;5.028;2023-12-20T09:06:08;101563.19;;;16.56;54.16
30302;BME280;17111;52.130;5.028;2023-12-20T09:08:35;101564.31;;;16.53;54.49
30302;BME280;17111;52.130;5.028;2023-12-20T09:11:02;101555.91;;;16.58;53.94
30302;BME280;17111;52.130;5.028;2023-12-20T09:13:29;101562.16;;;16.68;54.89
30302;BME280;17111;52.130;5.028;2023-12-20T09:15:56;101549.63;;;16.80;54.44
30302;BME280;17111;52.130;5.028;2023-12-20T09:18:23;101550.44;;;16.91;54.30
30302;BME280;17111;52.130;5.028;2023-12-20T09:20:49;101535.16;;;17.03;53.74
30302;BME280;17111;52.130;5.028;2023-12-20T09:23:16;101544.13;;;17.13;54.31
30302;BME280;17111;52.130;5.028;2023-12-20T09:25:44;101551.38;;;17.22;53.67
30302;BME280;17111;52.130;5.028;2023-12-20T09:28:11;101553.25;;;17.32;53.32
30302;BME280;17111;52.130;5.028;2023-12-20T09:30:38;101553.44;;;17.40;53.87
30302;BME280;17111;52.130;5.028;2023-12-20T09:33:06;101548.56;;;17.45;54.00
30302;BME280;17111;52.130;5.028;2023-12-20T09:35:34;101543.75;;;17.48;53.66
30302;BME280;17111;52.130;5.028;2023-12-20T09:38:01;101555.06;;;17.52;53.48
30302;BME280;17111;52.130;5.028;2023-12-20T09:40:27;101554.09;;;17.53;53.50
30302;BME280;17111;52.130;5.028;2023-12-20T09:45:22;101555.06;;;17.52;53.54
30302;BME280;17111;52.130;5.028;2023-12-20T09:47:50;101558.97;;;17.48;53.62
30302;BME280;17111;52.130;5.028;2023-12-20T09:50:20;101552.09;;;17.45;53.64
30302;BME280;17111;52.130;5.028;2023-12-20T09:52:53;101552.19;;;17.44;53.70
30302;BME280;17111;52.130;5.028;2023-12-20T09:55:20;101558.53;;;17.43;54.10
30302;BME280;17111;52.130;5.028;2023-12-20T09:57:48;101572.09;;;17.41;53.83
30302;BME280;17111;52.130;5.028;2023-12-20T10:00:16;101566.84;;;17.40;53.76
30302;BME280;17111;52.130;5.028;2023-12-20T10:02:56;101566.13;;;17.38;53.91
30302;BME280;17111;52.130;5.028;2023-12-20T10:05:30;101560.78;;;17.38;53.94
30302;BME280;17111;52.130;5.028;2023-12-20T10:07:59;101566.13;;;17.38;53.96
30302;BME280;17111;52.130;5.028;2023-12-20T10:10:27;101567.13;;;17.37;53.83
30302;BME280;17111;52.130;5.028;2023-12-20T10:13:10;101559.09;;;17.37;53.72
30302;BME280;17111;52.130;5.028;2023-12-20T10:15:37;101560.88;;;17.36;53.56
30302;BME280;17111;52.130;5.028;2023-12-20T10:18:04;101565.41;;;17.36;53.97
30302;BME280;17111;52.130;5.028;2023-12-20T10:20:31;101564.69;;;17.34;54.28
30302;BME280;17111;52.130;5.028;2023-12-20T10:22:59;101556.66;;;17.34;53.80
30302;BME280;17111;52.130;5.028;2023-12-20T10:25:27;101564.69;;;17.34;54.22
30302;BME280;17111;52.130;5.028;2023-12-20T10:28:12;101560.31;;;17.33;54.04
30302;BME280;17111;52.130;5.028;2023-12-20T10:30:40;101564.69;;;17.34;54.52
30302;BME280;17111;52.130;5.028;2023-12-20T10:33:08;101570.06;;;17.34;54.32
30302;BME280;17111;52.130;5.028;2023-12-20T10:35:37;101563.00;;;17.33;54.19
30302;BME280;17111;52.130;5.028;2023-12-20T10:38:10;101556.78;;;17.32;54.16
30302;BME280;17111;52.130;5.028;2023-12-20T10:40:38;101555.81;;;17.33;54.20
30302;BME280;17111;52.130;5.028;2023-12-20T10:43:05;101545.94;;;17.34;54.39
30302;BME280;17111;52.130;5.028;2023-12-20T10:45:32;101546.06;;;17.32;54.79
30302;BME280;17111;52.130;5.028;2023-12-20T10:47:59;101539.59;;;17.35;54.59
30302;BME280;17111;52.130;5.028;2023-12-20T10:50:28;101526.94;;;17.37;54.63
30302;BME280;17111;52.130;5.028;2023-12-20T10:52:57;101523.13;;;17.39;54.65
30302;BME280;17111;52.130;5.028;2023-12-20T10:55:25;101527.38;;;17.42;54.73
30302;BME280;17111;52.130;5.028;2023-12-20T10:57:54;101520.03;;;17.44;54.81
30302;BME280;17111;52.130;5.028;2023-12-20T11:00:25;101524.44;;;17.45;54.76
30302;BME280;17111;52.130;5.028;2023-12-20T11:02:53;101519.78;;;17.47;54.67
30302;BME280;17111;52.130;5.028;2023-12-20T11:05:46;101533.16;;;17.47;54.66
30302;BME280;17111;52.130;5.028;2023-12-20T11:08:26;101527.56;;;17.50;54.54
30302;BME280;17111;52.130;5.028;2023-12-20T11:11:02;101528.25;;;17.52;54.70
30302;BME280;17111;52.130;5.028;2023-12-20T11:13:35;101526.41;;;17.52;54.54
30302;BME280;17111;52.130;5.028;2023-12-20T11:16:05;101523.75;;;17.52;54.21
30302;BME280;17111;52.130;5.028;2023-12-20T11:18:32;101518.38;;;17.52;54.43
30302;BME280;17111;52.130;5.028;2023-12-20T11:21:04;101521.94;;;17.53;54.04
30302;BME280;17111;52.130;5.028;2023-12-20T11:23:35;101516.69;;;17.51;54.13
30302;BME280;17111;52.130;5.028;2023-12-20T11:26:02;101508.78;;;17.50;54.13
30302;BME280;17111;52.130;5.028;2023-12-20T11:28:29;101510.88;;;17.46;54.01
30302;BME280;17111;52.130;5.028;2023-12-20T11:30:58;101499.59;;;17.43;54.26
30302;BME280;17111;52.130;5.028;2023-12-20T11:33:38;101498.16;;;17.39;54.38
30302;BME280;17111;52.130;5.028;2023-12-20T11:36:18;101499.25;;;17.36;54.92
30302;BME280;17111;52.130;5.028;2023-12-20T11:38:57;101497.72;;;17.34;54.80
30302;BME280;17111;52.130;5.028;2023-12-20T11:41:25;101489.69;;;17.34;54.97
30302;BME280;17111;52.130;5.028;2023-12-20T11:43:55;101481.06;;;17.30;54.83
30302;BME280;17111;52.130;5.028;2023-12-20T11:46:22;101482.16;;;17.27;55.11
30302;BME280;17111;52.130;5.028;2023-12-20T11:48:50;101482.03;;;17.29;55.10
30302;BME280;17111;52.130;5.028;2023-12-20T11:51:17;101483.84;;;17.28;54.95
30302;BME280;17111;52.130;5.028;2023-12-20T11:53:43;101484.84;;;17.27;54.76
30302;BME280;17111;52.130;5.028;2023-12-20T11:56:10;101491.19;;;17.26;54.30
30302;BME280;17111;52.130;5.028;2023-12-20T11:58:37;101484.25;;;17.24;54.43
30302;BME280;17111;52.130;5.028;2023-12-20T12:01:04;101471.00;;;17.22;54.86
30302;BME280;17111;52.130;5.028;2023-12-20T12:03:34;101475.50;;;17.22;55.09
30302;BME280;17111;52.130;5.028;2023-12-20T12:06:01;101472.00;;;17.21;55.22
30302;BME280;17111;52.130;5.028;2023-12-20T12:08:31;101477.47;;;17.20;54.88
30302;BME280;17111;52.130;5.028;2023-12-20T12:10:57;101483.94;;;17.17;54.76
30302;BME280;17111;52.130;5.028;2023-12-20T12:13:24;101480.53;;;17.15;54.98
30302;BME280;17111;52.130;5.028;2023-12-20T12:15:53;101477.16;;;17.13;54.85
30302;BME280;17111;52.130;5.028;2023-12-20T12:18:20;101470.97;;;17.13;54.75
30302;BME280;17111;52.130;5.028;2023-12-20T12:20:47;101479.09;;;17.11;54.84
30302;BME280;17111;52.130;5.028;2023-12-20T12:23:14;101467.69;;;17.09;55.06
30302;BME280;17111;52.130;5.028;2023-12-20T12:25:49;101458.81;;;17.09;55.10
30302;BME280;17111;52.130;5.028;2023-12-20T12:28:15;101455.25;;;17.08;55.27
30302;BME280;17111;52.130;5.028;2023-12-20T12:30:43;101442.84;;;17.07;55.28
30302;BME280;17111;52.130;5.028;2023-12-20T12:33:19;101449.19;;;17.06;55.21
30302;BME280;17111;52.130;5.028;2023-12-20T12:35:46;101456.25;;;17.07;54.72
30302;BME280;17111;52.130;5.028;2023-12-20T12:38:14;101440.44;;;17.04;54.93
30302;BME280;17111;52.130;5.028;2023-12-20T12:40:43;101441.44;;;17.03;55.17
30302;BME280;17111;52.130;5.028;2023-12-20T12:43:10;101443.25;;;17.02;55.39
30302;BME280;17111;52.130;5.028;2023-12-20T12:45:37;101432.69;;;17.01;55.21
30302;BME280;17111;52.130;5.028;2023-12-20T12:48:04;101432.69;;;17.01;55.16
30302;BME280;17111;52.130;5.028;2023-12-20T12:50:31;101437.66;;;17.06;55.53
30302;BME280;17111;52.130;5.028;2023-12-20T12:52:57;101432.31;;;17.15;54.72
30302;BME280;17111;52.130;5.028;2023-12-20T12:55:24;101432.38;;;17.25;54.81